Passez la souris sur le parcours pour voir le détail

Parcours x

Kilomètres   Horaires
Arrivée Départ       45km/h 43km/h 41km/h
198,5 0 VC Muret 12:20:00 12:20:00 12:20:00
198,5 0 D74 Muret 12:40:00 12:40:00 12:40:00
194 4,5 Espanès 12:45:00 12:46:00 12:46:00
193 5,5 Les Crouzats-Pérès 12:47:00 12:47:00 12:48:00
192 6,5 Carrefour D74-D24 12:49:00 12:49:00 12:49:00
191,5 7 D24 Montbrun-Lauragais 12:49:00 12:50:00 12:50:00
188 10,5 Baroux 12:54:00 12:54:00 12:55:00
186,5 12 Montgiscard 12:55:00 12:56:00 12:57:00
184 14,5 D31 Passage à Niveau N°200 12:59:00 13:00:00 13:01:00
183,5 15 Carrefour D31-D16 13:00:00 13:01:00 13:02:00
179 19,5 D31 Fourquevaux (Près) 13:06:00 13:07:00 13:08:00
176 22,5 Préserville 13:10:00 13:11:00 13:13:00
173 25,5 Carrefour D31-D18 13:14:00 13:15:00 13:17:00
171 27,5 D18 Fontenilles (Lanta) 13:16:00 13:18:00 13:20:00
168 30,5 Carrefour D18-D38 13:21:00 13:23:00 13:25:00
167,5 31 D38 Maureville 13:21:00 13:23:00 13:25:00
164 34,5 Carrefour D38-D11 13:26:00 13:28:00 13:30:00
162,5 36 D11 Caraman 13:28:00 13:30:00 13:32:00
154,5 44 Vendine 13:38:00 13:41:00 13:44:00
149 49,5 D87 En Célazard (Viviers-lès-Lavaur) 13:46:00 13:49:00 13:52:00
145,5 53 Lacougotte-Cadoul 13:50:00 13:54:00 13:57:00
140 58,5 Lavaur 13:58:00 14:01:00 14:05:00
135 63,5 Le Grès 14:05:00 14:09:00 14:13:00
132 66,5 Carrefour D87-D631 14:08:00 14:13:00 14:17:00
128 70,5 D631 Saint-Sernin 14:13:00 14:18:00 14:23:00
126 72,5 Larmès 14:16:00 14:20:00 14:25:00
125 73,5 Briatexte 14:18:00 14:22:00 14:27:00
119,5 79 Graulhet 14:25:00 14:30:00 14:35:00
108 90,5 Le Pont-Vieux 14:41:00 14:46:00 14:52:00
106,5 92 Laboutarie 14:43:00 14:48:00 14:55:00
106 92,5 Laboutarie 14:43:00 14:49:00 14:55:00
104 94,5 Carrefour D631-D41 14:46:00 14:52:00 14:58:00
103,5 95 Laboutarie-Gare 14:46:00 14:52:00 14:58:00
98,5 100 Carrefour D41-D612 14:53:00 15:00:00 15:06:00
97,5 101 D612 Mousquette 14:54:00 15:01:00 15:07:00
94,5 104 D120 Carrefour D120-D74 14:58:00 15:05:00 15:12:00
92,5 106 D74 Carrefour D74-D13 15:01:00 15:08:00 15:15:00
91,5 107 D13 Carrefour D13-D74 15:02:00 15:09:00 15:16:00
90 108,5 D74 Carrefour D74-D81 15:04:00 15:11:00 15:18:00
89,5 109 D81 Carrefour D81-D74 15:05:00 15:12:00 15:19:00
88 110,5 D74 Mouzieys-Teulet 15:07:00 15:14:00 15:21:00
85 113,5 Bessoulet 15:11:00 15:18:00 15:26:00
83,5 115 La Teulière 15:13:00 15:20:00 15:28:00
83 115,5 Villefranche-d'Albigeois 15:14:00 15:21:00 15:29:00
79,5 119 D999 Carrefour D999-D74 15:18:00 15:26:00 15:34:00
71,5 127 D74 Ambialet 15:29:00 15:37:00 15:46:00
67,5 131 Côte de Saint-Cirgue 15:35:00 15:43:00 15:52:00
67,5 131 Saint-Cirgue 15:35:00 15:43:00 15:52:00
66 132,5 Le Vergnassou 15:36:00 15:44:00 15:53:00
61,5 137 Valence-d'Albigeois 15:43:00 15:51:00 16:00:00
53 145,5 Courviala 15:54:00 16:03:00 16:13:00
51,5 147 Saint-Jean Delnous 15:55:00 16:04:00 16:14:00
50,5 148 Le Relais de la Clauze 15:57:00 16:06:00 16:17:00
48,5 150 Réquista 15:59:00 16:09:00 16:19:00
42,5 156 D902 La Pomparie 16:08:00 16:18:00 16:28:00
42 156,5 Côte de la Pomparie 16:08:00 16:18:00 16:28:00
40,5 158 La Plane 16:10:00 16:20:00 16:31:00
37,5 161 La Bernadie 16:14:00 16:24:00 16:35:00
36 162,5 La Selve 16:16:00 16:27:00 16:38:00
33 165,5 La Rosière-Basse 16:21:00 16:31:00 16:42:00
31,5 167 Côte de la Selve 16:22:00 16:33:00 16:44:00
30,5 168 La Baraque-de-Bégon 16:24:00 16:34:00 16:45:00
29,5 169 Loupis 16:25:00 16:36:00 16:47:00
28 170,5 Le Glandou 16:27:00 16:38:00 16:49:00
27 171,5 Cassagnes-Bégonhès 16:28:00 16:39:00 16:51:00
24 174,5 Mergals 16:33:00 16:43:00 16:55:00
23 175,5 La Pendarie 16:34:00 16:45:00 16:56:00
20 178,5 Pont de Grandfuel 16:37:00 16:48:00 17:01:00
19 179,5 La Burgayrolle 16:39:00 16:50:00 17:02:00
15 183,5 Bonnecombe 16:44:00 16:56:00 17:08:00
12 186,5 Le Devez 16:49:00 17:00:00 17:13:00
10,5 188 La Primaube 16:50:00 17:02:00 17:14:00
7 191,5 D888 La Boissonnade 16:55:00 17:07:00 17:20:00
5,5 193 La Mouline 16:57:00 17:09:00 17:22:00
5 193,5 D212 Le Lachet 16:58:00 17:10:00 17:23:00
4 194,5 Olemps 16:59:00 17:11:00 17:25:00
3,5 195 VC La Mouline 17:00:00 17:12:00 17:25:00
2,5 196 Rodez 17:01:00 17:13:00 17:27:00
0 198,5 D84 Rodez 17:04:00 17:17:00 17:30:00

ROADBOOKx


Statistiques x

Phénomène

Météo

Le soleil brille dès le départ et c'est une belle journée bien ensoleillée et chaude. Les températures sont de l'ordre de 31 à 35°C. Le vent est généralement faible variable, un peu plus marqué à l'arrivée (travers gauche)

Température

Vent

Météo x